Nearby METAR Reports

 

KSJC - San Jose
Updated: Sun, 25-Sep-2022 3:53am CDT
Clear
Clear
 Wind from SSE
Wind: SSE 5 mph , 7 km/h
Temperature: 63°F , 17°C
Dew Point: 55°F , 13°C
Humidity: 77%
Barometer: 30.04 inHg , 1017.3 hPa
Clouds: Clear
Visibility: 10 miles , 16 km
2022/09/25 08:53 KSJC 250853Z AUTO 16004KT 10SM CLR 17/13 A3004 RMK AO2 SLP171 T01720133 58000 $
KNUQ - Moffett NAS
Updated: Sun, 25-Sep-2022 3:55am CDT
Clear
Clear
 Wind from calm
Wind: Calm
Temperature: 63°F , 17°C
Dew Point: 59°F , 15°C
Humidity: 88%
Barometer: 30.04 inHg , 1017.3 hPa
Clouds: Clear
Visibility: 10 miles , 16 km
2022/09/25 08:55 KNUQ 250855Z AUTO 00000KT 10SM CLR 17/15 A3004 RMK AO2
 
KPAO - Palo Alto
Updated: Sat, 24-Sep-2022 10:47pm CDT
NOT Current
Clear
Clear
 Wind from NW
Wind: NW 6 mph , 9 km/h
Temperature: 64°F , 18°C
Dew Point: 59°F , 15°C
Humidity: 83%
Barometer: 30.01 inHg , 1016.3 hPa
Clouds: Clear
Visibility: 10 miles , 16 km
2022/09/25 03:47 KPAO 250347Z 32005KT 10SM SKC 18/15 A3001 RMK LAST.
KRHV - Reid Hillview - San Jose
Updated: Sat, 24-Sep-2022 11:55pm CDT
NOT Current
Clear
Clear
 Wind from SW
Wind: SW 3 mph , 6 km/h
Temperature: 70°F , 21°C
Dew Point: 55°F , 13°C
Humidity: 60%
Barometer: 30.03 inHg , 1016.9 hPa
Clouds: Clear
Visibility: 10 miles , 16 km
2022/09/25 04:55 KRHV 250455Z 22003KT 10SM SKC 21/13 A3003 RMK LAST
 
KSFO - San Francisco
Updated: Sun, 25-Sep-2022 3:56am CDT
Clear
Clear
 Wind from WNW
Wind: WNW 12 mph , 19 km/h
Temperature: 61°F , 16°C
Dew Point: 57°F , 14°C
Humidity: 88%
Barometer: 30.04 inHg , 1017.3 hPa
Clouds: Clear
Visibility: 10 miles , 16 km
2022/09/25 08:56 KSFO 250856Z 30010KT 10SM CLR 16/14 A3004 RMK AO2 SLP171 T01560139 58002
KORD - Chicago
Updated: Sun, 25-Sep-2022 3:51am CDT
Mostly cloudy
Mostly cloudy
 Wind from W
Wind: W 13 mph , 20 km/h
Temperature: 57°F , 14°C
Dew Point: 54°F , 12°C
Humidity: 88%
Barometer: 29.70 inHg , 1005.8 hPa
Clouds: Mostly cloudy
Visibility: 10 miles , 16 km
Cloud details: Partly cloudy 2600 ft
Mostly cloudy 3200 ft
2022/09/25 08:51 KORD 250851Z 28011KT 10SM SCT026 BKN032 14/12 A2970 RMK AO2 SLP054 60000 T01440117 56013
 
YBCS - Cairns, Australia
Updated: Sun, 25-Sep-2022 3:30am CDT
Clear
Clear
 Wind from E
Wind: E 8 mph , 13 km/h
Temperature: 81°F , 27°C
Heat Index: 83°F , 28°C
Dew Point: 66°F , 19°C
Humidity: 62%
Barometer: 29.88 inHg , 1012 hPa
Clouds: Clear
Visibility: 6 miles , 10 km
2022/09/25 08:30 YBCS 250830Z AUTO 10007KT 9999 // NCD 27/19 Q1012